createdAt,value
2023-05-02T05:03:22.646Z,9.22
2023-05-02T05:04:22.568Z,4.06
2023-05-02T05:05:22.788Z,4.16
2023-05-02T05:06:22.549Z,4.24
2023-05-02T05:07:22.331Z,3.66
2023-05-02T05:08:23.437Z,4.40
2023-05-02T05:09:23.270Z,3.43
2023-05-02T05:10:22.385Z,3.59
2023-05-02T05:11:23.278Z,3.62
2023-05-02T05:12:22.295Z,3.09
2023-05-02T05:13:23.422Z,2.75
2023-05-02T05:14:23.314Z,2.64
2023-05-02T05:15:22.144Z,2.81
2023-05-02T05:16:22.358Z,2.94
2023-05-02T05:17:22.318Z,3.10
2023-05-02T05:18:22.262Z,2.47
2023-05-02T05:19:23.195Z,2.97
2023-05-02T05:20:23.363Z,2.94
2023-05-02T05:21:22.354Z,2.60
2023-05-02T05:22:23.219Z,2.42
2023-05-02T05:23:23.304Z,2.16
2023-05-02T05:24:23.609Z,2.45
2023-05-02T05:25:23.464Z,2.18
2023-05-02T05:26:22.438Z,1.96
2023-05-02T05:27:23.315Z,1.75
2023-05-02T05:28:22.345Z,2.53
2023-05-02T05:29:23.349Z,2.47
2023-05-02T05:30:22.404Z,2.55
2023-05-02T05:31:22.475Z,2.69
2023-05-02T05:32:22.539Z,3.62
2023-05-02T05:33:23.645Z,3.09
2023-05-02T05:34:23.549Z,3.18
2023-05-02T05:35:23.601Z,4.10
2023-05-02T05:36:23.872Z,3.80
2023-05-02T05:37:23.690Z,3.73
2023-05-02T05:38:22.769Z,3.06
2023-05-02T05:39:37.465Z,3.65
2023-05-02T05:40:23.040Z,3.09
2023-05-02T05:41:23.105Z,3.18
2023-05-02T05:42:24.126Z,3.84
2023-05-02T05:43:24.217Z,3.59
2023-05-02T05:44:23.204Z,3.49
2023-05-02T05:45:23.238Z,3.19
2023-05-02T05:46:24.401Z,3.06
2023-05-02T05:47:24.589Z,3.13
2023-05-02T05:48:24.473Z,2.59
2023-05-02T05:49:23.413Z,2.92
2023-05-02T05:50:23.475Z,2.75
2023-05-02T05:51:24.509Z,2.57
2023-05-02T05:52:24.551Z,3.77
2023-05-02T05:53:23.736Z,4.01
2023-05-02T05:54:23.649Z,4.44
2023-05-02T05:55:24.679Z,4.77
2023-05-02T05:56:25.023Z,5.34
2023-05-02T05:57:24.709Z,5.38
2023-05-02T05:58:24.725Z,4.15
2023-05-02T05:59:24.787Z,4.90
2023-05-02T06:00:23.831Z,5.47
2023-05-02T06:01:25.020Z,4.81
2023-05-02T06:02:23.908Z,4.20
2023-05-02T06:03:24.847Z,5.32
2023-05-02T06:04:24.896Z,5.03
2023-05-02T06:05:23.803Z,5.09
2023-05-02T06:06:23.874Z,4.93
2023-05-02T06:07:24.854Z,5.46
2023-05-02T06:08:24.896Z,5.02
2023-05-02T06:09:24.913Z,4.16
2023-05-02T06:10:24.930Z,4.86
2023-05-02T06:11:24.084Z,4.41
2023-05-02T06:12:24.969Z,4.38
2023-05-02T06:13:24.055Z,4.98
2023-05-02T06:14:25.056Z,4.37
2023-05-02T06:16:45.867Z,4.84
2023-05-02T06:17:43.469Z,4.82
2023-05-02T06:18:44.432Z,4.22
2023-05-02T06:19:43.502Z,4.37
2023-05-02T06:20:43.560Z,4.98
2023-05-02T06:21:44.536Z,4.64
2023-05-02T06:22:44.595Z,5.99
2023-05-02T06:23:43.634Z,5.75
2023-05-02T06:24:44.675Z,5.24
2023-05-02T06:25:45.181Z,5.96
2023-05-02T06:26:44.767Z,5.46
2023-05-02T06:27:44.788Z,6.39
2023-05-02T06:28:43.900Z,4.95
2023-05-02T06:29:44.826Z,5.09
2023-05-02T06:30:43.907Z,4.63
2023-05-02T06:31:44.944Z,5.22
2023-05-02T06:32:43.996Z,6.09
2023-05-02T06:33:43.918Z,6.32
2023-05-02T06:34:44.928Z,5.92
2023-05-02T06:35:43.975Z,5.85
2023-05-02T06:36:43.963Z,6.93
2023-05-02T06:37:43.989Z,5.80
2023-05-02T06:38:45.013Z,4.97
2023-05-02T06:39:44.019Z,6.00
2023-05-02T06:40:45.085Z,5.40
2023-05-02T06:41:44.055Z,6.06
2023-05-02T06:42:44.078Z,6.50
2023-05-02T06:43:45.110Z,5.61
2023-05-02T06:44:44.127Z,6.16
2023-05-02T06:45:45.136Z,5.00
2023-05-02T06:46:44.276Z,4.85
2023-05-02T06:47:44.343Z,5.54
2023-05-02T06:48:45.225Z,4.80
2023-05-02T06:49:45.255Z,4.09
2023-05-02T06:50:45.281Z,3.90
2023-05-02T06:51:45.365Z,4.58
2023-05-02T06:52:45.313Z,4.11
2023-05-02T06:53:44.362Z,3.95
2023-05-02T06:54:44.382Z,4.56
2023-05-02T06:55:44.372Z,4.81
2023-05-02T06:56:46.008Z,5.37
2023-05-02T06:57:45.424Z,5.16
2023-05-02T06:58:44.466Z,5.40
2023-05-02T06:59:45.493Z,5.67
2023-05-02T07:00:45.605Z,6.02
2023-05-02T07:01:44.538Z,6.16
2023-05-02T07:02:44.645Z,6.62
2023-05-02T07:03:44.587Z,5.91
2023-05-02T07:04:45.658Z,6.03
2023-05-02T07:05:44.598Z,7.07
2023-05-02T07:06:44.641Z,6.22
2023-05-02T07:07:45.629Z,6.56
2023-05-02T07:08:44.690Z,6.73
2023-05-02T07:09:44.673Z,6.29
2023-05-02T07:10:45.792Z,6.14
2023-05-02T07:11:45.751Z,6.51
2023-05-02T07:12:44.772Z,7.42
2023-05-02T07:13:44.769Z,7.14
2023-05-02T07:14:44.830Z,7.21
2023-05-02T07:15:44.829Z,7.30
2023-05-02T07:16:44.946Z,7.42
2023-05-02T07:17:44.903Z,7.11
2023-05-02T07:18:45.878Z,7.06
2023-05-02T07:19:45.973Z,8.06
2023-05-02T07:20:46.009Z,8.30
2023-05-02T07:21:45.985Z,7.75
2023-05-02T07:22:45.002Z,6.83
2023-05-02T07:23:46.042Z,7.50
2023-05-02T07:24:46.097Z,6.79
2023-05-02T07:25:46.130Z,6.63
2023-05-02T07:26:45.159Z,6.81
2023-05-02T07:27:46.200Z,6.75
2023-05-02T07:28:46.166Z,7.31
2023-05-02T07:29:46.208Z,9.02
2023-05-02T07:30:46.218Z,8.98
2023-05-02T07:31:46.272Z,8.30
2023-05-02T07:32:46.304Z,9.42
2023-05-02T07:33:46.341Z,8.36
2023-05-02T07:34:45.274Z,8.88
2023-05-02T07:35:46.277Z,8.99
2023-05-02T07:36:46.335Z,8.16
2023-05-02T07:37:46.381Z,8.00
2023-05-02T07:38:45.393Z,8.79
2023-05-02T07:39:46.471Z,8.67
2023-05-02T07:40:46.495Z,8.41
2023-05-02T07:41:45.521Z,8.77
2023-05-02T07:42:46.576Z,7.96
2023-05-02T07:43:46.568Z,7.72
2023-05-02T07:44:46.654Z,7.48
2023-05-02T07:45:46.728Z,9.30
2023-05-02T07:46:46.745Z,9.16
2023-05-02T07:47:46.183Z,8.21
2023-05-02T07:48:46.788Z,8.76
2023-05-02T07:49:45.710Z,8.78
2023-05-02T07:50:46.699Z,9.06
2023-05-02T07:51:45.734Z,8.90
2023-05-02T07:52:46.908Z,8.14
2023-05-02T07:53:46.864Z,8.84
2023-05-02T07:54:46.644Z,8.53
2023-05-02T07:58:24.248Z,8.04
2023-05-02T07:59:25.191Z,8.83
2023-05-02T08:00:25.313Z,9.28
2023-05-02T08:01:25.053Z,8.33
2023-05-02T08:02:24.239Z,8.57
2023-05-02T08:03:25.333Z,8.22
2023-05-02T08:04:24.348Z,7.87
2023-05-02T08:05:25.900Z,8.21
2023-05-02T08:06:25.171Z,8.38
2023-05-02T08:07:24.116Z,7.50
2023-05-02T08:08:24.114Z,7.86
2023-05-02T08:09:25.124Z,7.04
2023-05-02T08:10:25.071Z,8.18
2023-05-02T08:11:25.071Z,8.54
2023-05-02T08:12:25.134Z,8.29
2023-05-02T08:13:25.069Z,7.99
2023-05-02T08:19:13.300Z,13.65
2023-05-02T08:20:14.102Z,5.94
2023-05-02T08:22:32.754Z,4.70
2023-05-02T08:23:32.520Z,5.07
2023-05-02T08:24:33.683Z,5.22
2023-05-02T08:25:33.641Z,5.54
2023-05-02T08:26:33.907Z,5.45
2023-05-02T08:27:34.213Z,5.59
2023-05-02T08:28:33.514Z,4.32
2023-05-02T08:29:33.654Z,4.65
2023-05-02T08:30:33.580Z,4.53
2023-05-02T08:31:33.608Z,4.40
2023-05-02T08:33:51.853Z,5.52
2023-05-02T08:34:53.455Z,4.96
2023-05-02T08:35:52.727Z,4.82
2023-05-02T08:36:52.509Z,4.66
2023-05-02T08:37:52.541Z,4.80
2023-05-02T08:38:51.598Z,6.10
2023-05-02T08:39:52.693Z,4.93
2023-05-02T08:40:51.527Z,5.12
2023-05-02T08:41:52.496Z,5.92
2023-05-02T08:42:52.641Z,5.97
2023-05-02T08:43:52.459Z,6.06
2023-05-02T08:44:51.471Z,6.20
2023-05-02T08:45:52.474Z,6.40
2023-05-02T08:46:52.523Z,6.26
2023-05-02T08:47:51.655Z,7.50
2023-05-02T08:48:51.403Z,6.72
2023-05-02T08:49:52.523Z,6.43
2023-05-02T08:50:52.446Z,6.85
2023-05-02T08:51:52.431Z,6.15
2023-05-02T08:52:51.467Z,6.19
2023-05-02T08:53:52.536Z,5.87
2023-05-02T08:54:51.580Z,5.40
2023-05-02T08:55:52.581Z,5.83
2023-05-02T08:56:52.607Z,5.56
2023-05-02T08:57:52.145Z,5.79
2023-05-02T08:58:51.708Z,5.16
2023-05-02T08:59:51.686Z,6.00
2023-05-02T09:00:51.758Z,6.09
2023-05-02T09:01:51.675Z,5.93
2023-05-02T09:04:11.187Z,7.41
2023-05-02T09:05:11.096Z,7.45
2023-05-02T09:06:12.178Z,7.40
2023-05-02T09:07:11.866Z,7.55
2023-05-02T09:08:11.868Z,8.47
2023-05-02T09:09:11.924Z,9.16
2023-05-02T09:10:11.931Z,7.61
2023-05-02T09:11:12.057Z,7.94
2023-05-02T09:12:10.979Z,9.09
2023-05-02T09:13:11.050Z,9.71
2023-05-02T09:14:11.982Z,8.80
2023-05-02T09:15:12.018Z,7.24
2023-05-02T09:16:12.075Z,8.03
2023-05-02T09:17:11.111Z,7.67
2023-05-02T09:18:12.108Z,6.85
2023-05-02T09:19:11.120Z,7.00
2023-05-02T09:20:12.150Z,7.23
2023-05-02T09:21:12.796Z,7.59
2023-05-02T09:22:11.200Z,6.56
2023-05-02T09:23:12.220Z,6.70
2023-05-02T09:24:11.269Z,6.99
2023-05-02T09:25:11.291Z,7.18
2023-05-02T09:26:12.433Z,7.19
2023-05-02T09:27:12.443Z,7.72
2023-05-02T09:28:11.361Z,7.71
2023-05-02T09:29:11.359Z,7.66
2023-05-02T09:30:12.538Z,7.33
2023-05-02T09:31:11.441Z,6.73
2023-05-02T09:32:11.465Z,6.73
2023-05-02T09:33:11.489Z,7.34
2023-05-02T09:34:11.642Z,6.82
2023-05-02T09:35:12.500Z,7.33
2023-05-02T09:36:12.529Z,7.16
2023-05-02T09:37:12.549Z,7.77
2023-05-02T09:38:12.601Z,7.35
2023-05-02T09:39:12.602Z,6.76
2023-05-02T09:40:12.675Z,7.07
2023-05-02T09:41:11.719Z,6.80
2023-05-02T09:42:11.632Z,7.17
2023-05-02T09:43:11.650Z,6.99
2023-05-02T09:44:12.936Z,7.33
2023-05-02T09:45:12.696Z,6.62
2023-05-02T09:46:12.733Z,5.92
2023-05-02T09:47:12.677Z,6.10
2023-05-02T09:48:12.920Z,6.64
2023-05-02T09:49:11.715Z,6.68
2023-05-02T09:50:12.718Z,6.68
2023-05-02T09:51:12.769Z,6.39
2023-05-02T09:52:11.755Z,6.42
2023-05-02T09:53:11.770Z,6.70
2023-05-02T09:54:11.784Z,6.35
2023-05-02T09:55:12.772Z,6.04
2023-05-02T09:56:12.806Z,5.95
2023-05-02T09:57:12.780Z,6.18
2023-05-02T09:58:12.815Z,7.04
2023-05-02T09:59:12.860Z,6.29
2023-05-02T10:00:11.917Z,6.93
2023-05-02T10:01:12.991Z,6.11
2023-05-02T10:02:12.243Z,6.65
2023-05-02T10:03:13.013Z,6.24
2023-05-02T10:04:12.022Z,6.48
2023-05-02T10:05:13.000Z,6.90
2023-05-02T10:06:13.088Z,6.88
2023-05-02T10:07:12.080Z,7.87
2023-05-02T10:08:13.169Z,6.93
2023-05-02T10:09:16.625Z,7.06
2023-05-02T10:10:13.128Z,6.27
2023-05-02T10:11:13.085Z,6.16
2023-05-02T10:12:12.092Z,7.74
2023-05-02T10:13:12.071Z,7.00
2023-05-02T10:14:13.097Z,7.50
2023-05-02T10:15:13.070Z,6.03
2023-05-02T10:16:12.136Z,6.16
2023-05-02T10:17:12.056Z,6.73
2023-05-02T10:18:12.092Z,6.78
2023-05-02T10:19:13.025Z,6.35
2023-05-02T10:20:13.014Z,6.92
2023-05-02T10:21:12.012Z,6.30
2023-05-02T10:22:13.045Z,6.71
2023-05-02T10:23:12.014Z,6.17
2023-05-02T10:24:13.013Z,5.68
2023-05-02T10:25:12.014Z,6.00
2023-05-02T10:26:13.006Z,6.53
2023-05-02T10:27:12.973Z,6.25
2023-05-02T10:28:11.966Z,5.71
2023-05-02T10:29:12.966Z,5.73
2023-05-02T10:30:12.970Z,5.79
2023-05-02T10:31:12.024Z,5.00
2023-05-02T10:32:13.307Z,5.89
2023-05-02T10:33:13.183Z,5.42
2023-05-02T10:34:12.167Z,5.64
2023-05-02T10:35:11.925Z,5.75
2023-05-02T10:36:11.912Z,5.45
2023-05-02T10:37:11.944Z,5.57
2023-05-02T10:38:12.964Z,6.41
2023-05-02T10:39:12.899Z,6.72
2023-05-02T10:40:12.960Z,6.49
2023-05-02T10:41:11.876Z,6.45
2023-05-02T10:42:12.882Z,7.21
2023-05-02T10:43:12.951Z,6.09
2023-05-02T10:44:12.866Z,6.10
2023-05-02T10:45:12.849Z,5.49
2023-05-02T10:46:12.879Z,5.85
2023-05-02T10:47:11.838Z,5.00
2023-05-02T10:48:11.876Z,5.58
2023-05-02T10:49:11.870Z,5.18
2023-05-02T10:50:11.823Z,4.77
2023-05-02T10:51:12.808Z,5.32
2023-05-02T10:52:11.791Z,5.21
2023-05-02T10:53:12.868Z,4.94
2023-05-02T10:54:11.780Z,6.16
2023-05-02T10:55:11.793Z,6.54
2023-05-02T10:56:12.784Z,6.29
2023-05-02T10:57:12.746Z,6.10
2023-05-02T10:58:11.838Z,6.64
2023-05-02T10:59:12.770Z,6.16
2023-05-02T11:00:12.815Z,6.58
2023-05-02T11:01:11.903Z,5.40
2023-05-02T11:02:13.040Z,5.76
2023-05-02T11:03:13.140Z,5.34
2023-05-02T11:04:13.008Z,5.98
2023-05-02T11:05:13.111Z,6.15
2023-05-02T11:06:13.136Z,6.27
2023-05-02T11:07:13.170Z,6.28
2023-05-02T11:08:12.300Z,5.94
2023-05-02T11:09:12.244Z,6.59
2023-05-02T11:10:13.267Z,6.22
2023-05-02T11:11:13.269Z,6.51
2023-05-02T11:12:13.296Z,6.18
2023-05-02T11:13:13.339Z,6.22
2023-05-02T11:14:14.381Z,5.87
2023-05-02T11:15:13.346Z,5.79
2023-05-02T11:16:13.419Z,6.21
2023-05-02T11:17:13.477Z,6.15
2023-05-02T11:18:13.595Z,6.05
2023-05-02T11:19:14.477Z,6.14
2023-05-02T11:20:13.632Z,6.22
2023-05-02T11:21:12.541Z,6.38
2023-05-02T11:22:12.618Z,5.95
2023-05-02T11:23:13.656Z,6.30
2023-05-02T11:24:13.751Z,7.54
2023-05-02T11:25:13.772Z,7.31
2023-05-02T11:26:13.777Z,6.46
2023-05-02T11:27:13.803Z,6.31
2023-05-02T11:28:13.829Z,5.52
2023-05-02T11:29:13.887Z,6.80
2023-05-02T11:30:14.256Z,6.46
2023-05-02T11:31:13.960Z,6.02
2023-05-02T11:32:13.043Z,6.11
2023-05-02T11:33:14.810Z,6.50
2023-05-02T11:34:14.157Z,6.52
2023-05-02T11:35:13.160Z,6.62
2023-05-02T11:36:13.205Z,7.98
2023-05-02T11:37:14.260Z,8.46
2023-05-02T11:38:13.326Z,6.80
2023-05-02T11:39:13.482Z,4.44
2023-05-02T11:40:13.746Z,4.82
2023-05-02T11:41:14.536Z,4.47
2023-05-02T11:42:13.383Z,4.56
2023-05-02T11:43:13.431Z,4.77
2023-05-02T11:44:14.433Z,5.02
2023-05-02T11:46:32.693Z,6.07
2023-05-02T11:47:32.465Z,6.31
2023-05-02T11:48:33.386Z,6.52
2023-05-02T11:49:33.382Z,6.10
2023-05-02T11:50:32.370Z,6.24
2023-05-02T11:51:32.346Z,6.57
2023-05-02T11:52:32.324Z,6.29
2023-05-02T11:53:32.372Z,6.10
2023-05-02T11:54:33.353Z,5.71
2023-05-02T11:55:33.337Z,5.66
2023-05-02T11:56:32.319Z,4.72
2023-05-02T11:57:33.328Z,4.69
2023-05-02T11:58:32.338Z,4.68
2023-05-02T11:59:32.301Z,5.12
2023-05-02T12:00:46.801Z,5.03
2023-05-02T12:01:32.345Z,4.75
2023-05-02T12:02:33.515Z,4.87
2023-05-02T12:03:32.592Z,4.41
2023-05-02T12:04:32.489Z,4.07
2023-05-02T12:05:32.536Z,4.70
2023-05-02T12:06:32.535Z,4.81
2023-05-02T12:07:32.589Z,4.01
2023-05-02T12:08:33.610Z,4.78
2023-05-02T12:09:33.644Z,5.13
2023-05-02T12:10:32.697Z,5.38
2023-05-02T12:11:33.729Z,4.83
2023-05-02T12:12:32.725Z,5.21
2023-05-02T12:13:32.755Z,4.93
2023-05-02T12:14:32.768Z,4.70
2023-05-02T12:15:32.792Z,5.14
2023-05-02T12:16:32.936Z,4.97
2023-05-02T12:17:32.890Z,4.91
2023-05-02T12:18:32.908Z,4.81
2023-05-02T12:19:33.913Z,4.89
2023-05-02T12:20:32.930Z,4.13
2023-05-02T12:21:33.957Z,4.76
2023-05-02T12:22:32.993Z,5.22
2023-05-02T12:23:34.774Z,4.62
2023-05-02T12:24:34.036Z,4.54
2023-05-02T12:25:33.059Z,5.09
2023-05-02T12:26:34.118Z,7.50
2023-05-02T12:27:33.164Z,5.60
2023-05-02T12:28:34.159Z,4.78
2023-05-02T12:29:33.200Z,5.03
2023-05-02T12:30:34.270Z,5.43
2023-05-02T12:31:33.295Z,4.39
2023-05-02T12:32:34.402Z,4.77
2023-05-02T12:33:34.357Z,4.54
2023-05-02T12:34:33.445Z,5.03
2023-05-02T12:35:34.454Z,4.93
2023-05-02T12:36:34.464Z,4.34
2023-05-02T12:37:33.457Z,4.67
2023-05-02T12:38:33.520Z,5.33
2023-05-02T12:39:34.568Z,5.34
2023-05-02T12:40:34.574Z,5.60
2023-05-02T12:41:33.715Z,4.39
2023-05-02T12:42:33.648Z,4.71
2023-05-02T12:43:36.110Z,4.76
2023-05-02T12:44:33.719Z,5.24
2023-05-02T12:45:33.686Z,4.57
2023-05-02T12:46:33.750Z,4.47
2023-05-02T12:47:34.717Z,3.41
2023-05-02T12:48:34.656Z,3.26
2023-05-02T12:49:33.638Z,3.61
2023-05-02T12:50:34.654Z,3.97
2023-05-02T12:51:34.931Z,2.87
2023-05-02T12:52:33.674Z,2.81
2023-05-02T12:53:33.629Z,2.46
2023-05-02T12:54:34.676Z,2.76
2023-05-02T12:55:34.601Z,2.70
2023-05-02T12:56:33.589Z,2.52
2023-05-02T12:57:33.567Z,2.98
2023-05-02T12:58:33.589Z,3.11
2023-05-02T12:59:34.576Z,2.98
2023-05-02T13:00:33.622Z,3.54
2023-05-02T13:01:34.922Z,2.74
2023-05-02T13:02:33.597Z,2.95
2023-05-02T13:03:33.671Z,3.16
2023-05-02T13:04:33.534Z,2.95
2023-05-02T13:05:34.554Z,3.15
2023-05-02T13:06:33.575Z,3.94
2023-05-02T13:07:34.490Z,3.51
2023-05-02T13:08:34.523Z,3.53
2023-05-02T13:09:33.523Z,3.56
2023-05-02T13:10:33.489Z,3.66
2023-05-02T13:11:34.491Z,3.60
2023-05-02T13:12:33.456Z,3.90
2023-05-02T13:13:34.448Z,3.48
2023-05-02T13:14:33.612Z,3.19
2023-05-02T13:15:34.432Z,3.67
2023-05-02T13:16:33.509Z,3.76
2023-05-02T13:17:34.578Z,3.66
2023-05-02T13:18:33.615Z,4.55
2023-05-02T13:19:33.570Z,4.44
2023-05-02T13:20:34.572Z,3.81
2023-05-02T13:21:33.605Z,4.03
2023-05-02T13:22:34.613Z,4.04
2023-05-02T13:23:33.625Z,4.48
2023-05-02T13:24:33.617Z,4.55
2023-05-02T13:25:34.606Z,4.10
2023-05-02T13:26:33.641Z,4.90
2023-05-02T13:27:34.686Z,3.28
2023-05-02T13:28:33.744Z,3.11
2023-05-02T13:29:34.799Z,3.22
2023-05-02T13:30:34.877Z,3.50
2023-05-02T13:31:33.906Z,3.70
2023-05-02T13:32:34.952Z,4.01
2023-05-02T13:33:34.911Z,3.91
2023-05-02T13:34:34.932Z,3.91
2023-05-02T13:35:35.463Z,3.71
2023-05-02T13:36:33.934Z,3.74
2023-05-02T13:37:34.974Z,3.86
2023-05-02T13:38:35.014Z,3.78
2023-05-02T13:39:35.056Z,3.28
2023-05-02T13:40:34.070Z,3.29
2023-05-02T13:41:35.118Z,3.55
2023-05-02T13:42:35.188Z,3.46
2023-05-02T13:43:35.223Z,3.97
2023-05-02T13:44:35.297Z,3.14
2023-05-02T13:45:35.348Z,2.94
2023-05-02T13:46:35.456Z,3.88
2023-05-02T13:47:35.500Z,4.36
2023-05-02T13:48:35.515Z,3.95
2023-05-02T13:49:34.561Z,4.10
2023-05-02T13:50:34.616Z,3.49
2023-05-02T13:51:35.690Z,3.78
2023-05-02T13:52:35.688Z,3.57
2023-05-02T13:53:34.738Z,3.68
2023-05-02T13:54:34.842Z,4.14
2023-05-02T13:55:35.933Z,3.99
2023-05-02T13:56:34.992Z,4.50
2023-05-02T13:57:35.019Z,3.92
2023-05-02T13:58:36.016Z,3.91
2023-05-02T13:59:35.092Z,4.04
2023-05-02T14:00:36.264Z,4.40
2023-05-02T14:01:36.286Z,4.41
2023-05-02T14:02:35.283Z,4.30
2023-05-02T14:03:36.306Z,4.49
2023-05-02T14:04:36.292Z,4.42
2023-05-02T14:05:36.387Z,4.92
2023-05-02T14:06:36.512Z,4.35
2023-05-02T14:07:35.469Z,5.13
2023-05-02T14:08:35.512Z,4.28
2023-05-02T14:09:36.581Z,4.04
2023-05-02T14:10:36.616Z,4.78
2023-05-02T14:11:35.689Z,4.72
2023-05-02T14:12:35.693Z,4.93
2023-05-02T14:13:36.740Z,4.86
2023-05-02T14:14:35.809Z,5.04
2023-05-02T14:15:36.874Z,5.22
2023-05-02T14:16:37.024Z,5.65
2023-05-02T14:17:35.940Z,5.16
2023-05-02T14:18:35.957Z,5.18
2023-05-02T14:19:35.981Z,5.05
2023-05-02T14:20:36.998Z,5.37
2023-05-02T14:21:37.019Z,5.31
2023-05-02T14:22:36.074Z,5.61
2023-05-02T14:23:37.122Z,4.66
2023-05-02T14:24:37.177Z,5.73
2023-05-02T14:25:37.247Z,4.65
2023-05-02T14:26:37.292Z,5.41
2023-05-02T14:27:36.340Z,5.60
2023-05-02T14:28:39.127Z,5.49
2023-05-02T14:29:37.375Z,5.65
2023-05-02T14:30:37.362Z,5.50
2023-05-02T14:31:36.436Z,5.39
2023-05-02T14:32:36.376Z,5.22
2023-05-02T14:33:37.368Z,5.03
2023-05-02T14:34:36.349Z,4.76
2023-05-02T14:35:36.331Z,5.31
2023-05-02T14:36:36.332Z,5.03
2023-05-02T14:37:37.405Z,5.80
2023-05-02T14:38:37.320Z,5.52
2023-05-02T14:39:37.303Z,5.07
2023-05-02T14:40:37.306Z,5.20
2023-05-02T14:41:37.300Z,4.52
2023-05-02T14:42:37.308Z,4.51
2023-05-02T14:43:37.274Z,4.75
2023-05-02T14:44:37.270Z,4.60
2023-05-02T14:45:36.287Z,4.48
2023-05-02T14:46:36.300Z,5.24
2023-05-02T14:47:37.273Z,5.14
2023-05-02T14:48:36.245Z,6.87
2023-05-02T14:49:37.242Z,7.68
2023-05-02T14:50:36.233Z,5.82
2023-05-02T14:51:37.218Z,5.73
2023-05-02T14:52:36.216Z,5.65
2023-05-02T14:53:36.200Z,5.01
2023-05-02T14:54:36.210Z,6.68
2023-05-02T14:55:36.241Z,5.37
2023-05-02T14:56:37.289Z,5.52
2023-05-02T14:57:36.329Z,6.08
2023-05-02T14:58:36.419Z,5.67
2023-05-02T14:59:36.473Z,5.16
2023-05-02T15:00:36.471Z,5.12
2023-05-02T15:01:36.575Z,5.27
2023-05-02T15:02:36.697Z,5.54
2023-05-02T15:03:49.200Z,6.01
2023-05-02T15:04:37.642Z,5.69
2023-05-02T15:05:37.555Z,6.24
2023-05-02T15:06:37.065Z,7.09
2023-05-02T15:07:37.553Z,7.00
2023-05-02T15:08:37.403Z,6.93
2023-05-02T15:09:36.547Z,6.19
2023-05-02T15:10:37.548Z,6.39
2023-05-02T15:11:37.553Z,6.42
2023-05-02T15:12:36.557Z,5.57
2023-05-02T15:13:37.536Z,5.67
2023-05-02T15:14:37.530Z,5.21
2023-05-02T15:15:36.486Z,5.95
2023-05-02T15:16:37.579Z,6.20
2023-05-02T15:17:36.491Z,6.10
2023-05-02T15:18:36.488Z,5.61
2023-05-02T15:19:37.510Z,4.66
2023-05-02T15:20:36.499Z,5.78
2023-05-02T15:21:37.492Z,4.83
2023-05-02T15:22:37.477Z,5.47
2023-05-02T15:23:36.443Z,5.99
2023-05-02T15:24:37.467Z,5.56
2023-05-02T15:25:37.498Z,5.18
2023-05-02T15:26:36.461Z,5.43
2023-05-02T15:27:36.440Z,5.43
2023-05-02T15:28:36.441Z,5.97
2023-05-02T15:29:37.480Z,5.00
